Kezdőlap
METAR-TAF:

METAR-TAF

Repülőterek :

Belleville, Illinois, Amerikai Egyesült Államok

földrajzi szélesség: 38-33N, földrajzi hosszúság: 089-51W, magasság: 140 m

Jelenlegi meteorológiai megfigyelések

A jelentés 57 perccel ezelõtt készült, 09:55 UTC
Északi szél 4 kt
Hőmérséklet 21°C
Páratartalom 83%
Légköri nyomás 1018 hPa
Látótávolság: 16.1 km
Borult 11000 lábon

METAR: KBLV 210955Z AUTO 36004KT 10SM OVC110 21/18 A3006 RMK AO2 SLP179 T02120184 $

Idő: 05:52 (10:52 UTC)

Előrejelzés

A jelentés 2 órával és 52 perccel ezelõtt készült, 08:00 UTC
Az előrejelzés 21-én 08 óra UTC és 22-én 14 óra UTC között érvényes
Észak-északkeleti szél 6 kt
Látótávolság 10 km, vagy több
Szórványos felhőzet 3000 lábon
Szakadozott felhőzet 10000 lábon
Borult 25000 lábon

TAF: KBLV 210800Z 2108/2214 03006KT 9999 SCT030 BKN100 OVC250 QNH3000INS TX27/2120Z TN18/2111Z

Meteorológiai megfigyelések és előrejelzések több, mint 4000 repülőtéren (METAR és TAF jelentéseket).

A térképen piros és sárga pontok jelzik az elérhető meteorológiai állomásokat.

Mozgassa az egeret a pont fölött, hogy megjelenjen az állomás neve.

Azután kattintson az időjárási megfigyelések és előrejelzések megtekintéséhez.

A térkép megváltoztatása: kattintson a fekete keresztel jelölt zöld gombra ráközelítéshez, a vonallal jelölt zöld gombra távolításhoz, vagy a zöld nyilakra a szomszédos térképek eléréséhez.


METAR-TAF: